Terminal Aerodrome Forecast
Issued by NWS

Current Version | Previous Version | Text Only | Print | Product List | Glossary Off
Versions: 1 2 3 4 5 6 7 8 9 10 11 12 13 14 15 16 17 18 19 20 21 22

000
FTUS41 KPBZ 012200 AAA
TAFMGW
TAF AMD
KMGW 012226Z 0122/0218 21007KT 4SM -SNRA OVC008
     FM020500 26005KT 1SM -SN OVC010
     FM020800 27010KT 3SM -SN OVC015
     FM021300 27007KT P6SM OVC025=

USA.gov is the U.S. government's official web portal to all federal, state and local government web resources and services.